createdAt,value
2023-03-27T00:01:13.300Z,97108.88
2023-03-27T00:03:41.069Z,97106.91
2023-03-27T00:06:11.907Z,97104.78
2023-03-27T00:08:39.159Z,97088.97
2023-03-27T00:11:08.077Z,97089.94
2023-03-27T00:13:50.378Z,97078.69
2023-03-27T00:16:21.685Z,97078.06
2023-03-27T00:18:49.752Z,97070.22
2023-03-27T00:21:16.988Z,97068.78
2023-03-27T00:23:44.398Z,97063.53
2023-03-27T00:26:14.345Z,97057.00
2023-03-27T00:28:42.129Z,97051.78
2023-03-27T00:31:14.138Z,97054.41
2023-03-27T00:33:42.215Z,97053.06
2023-03-27T00:36:10.264Z,97055.69
2023-03-27T00:38:39.620Z,97052.78
2023-03-27T00:41:08.107Z,97044.28
2023-03-27T00:43:36.430Z,97042.97
2023-03-27T00:46:21.318Z,97040.06
2023-03-27T00:48:51.556Z,97033.19
2023-03-27T00:51:19.091Z,97037.28
2023-03-27T00:53:47.564Z,97028.47
2023-03-27T00:56:16.619Z,97025.88
2023-03-27T00:58:46.993Z,97016.09
2023-03-27T01:01:15.939Z,97019.34
2023-03-27T01:03:46.661Z,97014.94
2023-03-27T01:06:16.948Z,97007.28
2023-03-27T01:08:45.834Z,97004.69
2023-03-27T01:11:47.602Z,97003.91
2023-03-27T01:14:30.245Z,97004.38
2023-03-27T01:17:08.092Z,96987.91
2023-03-27T01:19:56.651Z,96991.84
2023-03-27T01:23:02.032Z,96987.25
2023-03-27T01:25:40.054Z,96986.62
2023-03-27T01:28:28.632Z,96987.25
2023-03-27T01:31:15.295Z,96975.53
2023-03-27T01:33:52.623Z,96967.87
2023-03-27T01:36:39.768Z,96970.34
2023-03-27T01:39:13.391Z,96969.34
2023-03-27T01:42:15.940Z,96963.34
2023-03-27T01:44:48.002Z,96964.94
2023-03-27T01:47:33.043Z,96954.84
2023-03-27T01:50:13.036Z,96954.38
2023-03-27T01:52:43.180Z,96955.34
2023-03-27T01:55:13.769Z,96949.78
2023-03-27T01:58:00.879Z,96952.75
2023-03-27T02:00:52.241Z,96953.06
2023-03-27T02:03:33.693Z,96958.13
2023-03-27T02:06:07.663Z,96958.94
2023-03-27T02:08:48.048Z,96952.09
2023-03-27T02:11:15.776Z,96950.94
2023-03-27T02:14:06.182Z,96948.81
2023-03-27T02:16:36.273Z,96947.53
2023-03-27T02:19:08.787Z,96938.56
2023-03-27T02:21:35.843Z,96924.06
2023-03-27T02:24:03.636Z,96913.50
2023-03-27T02:26:30.963Z,96907.63
2023-03-27T02:29:17.659Z,96891.97
2023-03-27T02:31:54.350Z,96888.59
2023-03-27T02:34:44.112Z,96879.44
2023-03-27T02:37:17.602Z,96874.56
2023-03-27T02:39:57.646Z,96861.22
2023-03-27T02:42:35.653Z,96857.81
2023-03-27T02:45:29.974Z,96864.50
2023-03-27T02:47:59.015Z,96861.88
2023-03-27T02:50:32.076Z,96859.59
2023-03-27T02:53:03.472Z,96852.94
2023-03-27T02:55:37.794Z,96852.78
2023-03-27T02:58:12.747Z,96847.41
2023-03-27T03:00:43.853Z,96846.09
2023-03-27T03:03:18.020Z,96849.84
2023-03-27T03:05:50.877Z,96845.63
2023-03-27T03:08:21.632Z,96836.47
2023-03-27T03:10:49.409Z,96832.09
2023-03-27T03:13:17.782Z,96830.00
2023-03-27T03:15:46.478Z,96830.00
2023-03-27T03:18:14.620Z,96833.91
2023-03-27T03:20:41.787Z,96829.69
2023-03-27T03:23:09.298Z,96831.47
2023-03-27T03:25:36.478Z,96835.72
2023-03-27T03:28:08.098Z,96832.63
2023-03-27T03:30:38.967Z,96834.91
2023-03-27T03:33:06.626Z,96834.91
2023-03-27T03:35:35.872Z,96830.00
2023-03-27T03:38:06.563Z,96831.31
2023-03-27T03:40:39.647Z,96831.81
2023-03-27T03:43:06.990Z,96833.75
2023-03-27T03:45:34.029Z,96825.97
2023-03-27T03:48:01.135Z,96826.91
2023-03-27T03:50:28.684Z,96823.81
2023-03-27T03:52:55.939Z,96816.97
2023-03-27T03:55:22.972Z,96823.50
2023-03-27T03:57:50.428Z,96818.16
2023-03-27T04:00:18.779Z,96819.75
2023-03-27T04:02:49.422Z,96822.53
2023-03-27T04:05:16.788Z,96824.97
2023-03-27T04:07:45.660Z,96825.47
2023-03-27T04:10:14.281Z,96825.13
2023-03-27T04:12:46.128Z,96818.94
2023-03-27T04:15:14.008Z,96817.66
2023-03-27T04:17:43.663Z,96819.59
2023-03-27T04:20:13.119Z,96824.16
2023-03-27T04:22:46.459Z,96816.81
2023-03-27T04:25:17.283Z,96821.56
2023-03-27T04:27:44.866Z,96815.22
2023-03-27T04:30:15.841Z,96814.87
2023-03-27T04:32:46.268Z,96814.06
2023-03-27T04:35:25.672Z,96818.13
2023-03-27T04:37:53.265Z,96811.94
2023-03-27T04:40:25.330Z,96811.12
2023-03-27T04:42:53.424Z,96813.91
2023-03-27T04:45:20.753Z,96810.00
2023-03-27T04:47:49.238Z,96802.00
2023-03-27T04:50:17.168Z,96795.84
2023-03-27T04:52:44.881Z,96804.97
2023-03-27T04:55:12.295Z,96811.78
2023-03-27T04:57:41.865Z,96800.06
2023-03-27T05:00:19.648Z,96800.06
2023-03-27T05:02:52.745Z,96790.63
2023-03-27T05:05:20.356Z,96795.00
2023-03-27T05:07:49.011Z,96779.88
2023-03-27T05:10:22.001Z,96781.81
2023-03-27T05:12:51.326Z,96779.19
2023-03-27T05:15:19.755Z,96774.81
2023-03-27T05:17:53.348Z,96773.03
2023-03-27T05:20:22.154Z,96776.25
2023-03-27T05:22:49.507Z,96776.94
2023-03-27T05:25:17.136Z,96771.72
2023-03-27T05:27:49.231Z,96779.72
2023-03-27T05:30:19.414Z,96779.22
2023-03-27T05:32:49.349Z,96780.19
2023-03-27T05:35:23.357Z,96775.00
2023-03-27T05:37:53.134Z,96775.81
2023-03-27T05:40:23.346Z,96772.72
2023-03-27T05:42:51.482Z,96779.06
2023-03-27T05:45:19.274Z,96773.38
2023-03-27T05:47:48.846Z,96770.91
2023-03-27T05:50:17.989Z,96766.19
2023-03-27T05:52:46.240Z,96766.03
2023-03-27T05:55:14.835Z,96758.53
2023-03-27T05:57:44.881Z,96758.41
2023-03-27T06:00:14.157Z,96757.09
2023-03-27T06:02:43.976Z,96759.06
2023-03-27T06:05:16.113Z,96754.34
2023-03-27T06:07:47.611Z,96752.88
2023-03-27T06:10:17.909Z,96750.78
2023-03-27T06:12:48.976Z,96748.97
2023-03-27T06:15:17.145Z,96746.37
2023-03-27T06:17:47.816Z,96744.44
2023-03-27T06:20:15.590Z,96748.00
2023-03-27T06:22:52.033Z,96741.31
2023-03-27T06:25:20.394Z,96746.84
2023-03-27T06:27:49.690Z,96737.59
2023-03-27T06:30:20.446Z,96743.09
2023-03-27T06:32:52.272Z,96734.97
2023-03-27T06:35:22.364Z,96736.91
2023-03-27T06:37:53.585Z,96742.94
2023-03-27T06:40:24.350Z,96734.81
2023-03-27T06:42:56.133Z,96739.69
2023-03-27T06:45:26.120Z,96744.56
2023-03-27T06:48:18.013Z,96750.75
2023-03-27T06:50:51.182Z,96751.22
2023-03-27T06:53:27.396Z,96763.91
2023-03-27T06:55:57.152Z,96761.16
2023-03-27T06:58:25.452Z,96764.41
2023-03-27T07:00:55.178Z,96775.13
2023-03-27T07:03:27.874Z,96769.13
2023-03-27T07:05:57.257Z,96765.50
2023-03-27T07:08:26.696Z,96767.47
2023-03-27T07:13:27.183Z,96771.69
2023-03-27T07:15:56.140Z,96770.41
2023-03-27T07:18:23.915Z,96762.47
2023-03-27T07:20:51.653Z,96767.47
2023-03-27T07:23:19.035Z,96761.13
2023-03-27T07:25:49.928Z,96765.69
2023-03-27T07:28:20.965Z,96768.59
2023-03-27T07:30:48.831Z,96763.72
2023-03-27T07:33:22.430Z,96764.22
2023-03-27T07:35:50.965Z,96769.59
2023-03-27T07:38:19.974Z,96777.56
2023-03-27T07:40:50.355Z,96775.47
2023-03-27T07:43:19.513Z,96773.66
2023-03-27T07:45:46.521Z,96777.91
2023-03-27T07:48:17.485Z,96777.22
2023-03-27T07:50:46.586Z,96775.94
2023-03-27T07:53:32.446Z,96778.38
2023-03-27T07:56:03.593Z,96768.13
2023-03-27T07:58:32.082Z,96759.34
2023-03-27T08:01:02.123Z,96765.00
2023-03-27T08:03:31.245Z,96769.41
2023-03-27T08:06:00.455Z,96771.19
2023-03-27T08:08:28.414Z,96772.81
2023-03-27T08:10:57.061Z,96781.81
2023-03-27T08:13:24.629Z,96787.16
2023-03-27T08:15:53.067Z,96787.28
2023-03-27T08:18:20.871Z,96790.91
2023-03-27T08:20:49.669Z,96797.09
2023-03-27T08:23:16.993Z,96791.91
2023-03-27T08:25:50.426Z,96791.59
2023-03-27T08:28:17.872Z,96795.16
2023-03-27T08:30:46.233Z,96795.81
2023-03-27T08:33:13.382Z,96792.72
2023-03-27T08:35:40.675Z,96794.81
2023-03-27T08:38:19.940Z,96799.37
2023-03-27T08:40:58.915Z,96798.91
2023-03-27T08:43:44.771Z,96807.19
2023-03-27T08:46:19.360Z,96812.91
2023-03-27T08:49:03.775Z,96817.59
2023-03-27T08:51:47.065Z,96826.41
2023-03-27T08:54:34.131Z,96823.81
2023-03-27T08:57:17.321Z,96822.03
2023-03-27T08:59:46.454Z,96820.56
2023-03-27T09:02:44.964Z,96825.59
2023-03-27T09:05:32.228Z,96829.34
2023-03-27T09:08:15.881Z,96823.81
2023-03-27T09:11:07.987Z,96814.03
2023-03-27T09:13:43.079Z,96818.59
2023-03-27T09:16:22.062Z,96820.25
2023-03-27T09:19:12.343Z,96814.53
2023-03-27T09:21:47.392Z,96814.06
2023-03-27T09:24:34.751Z,96814.22
2023-03-27T09:27:17.813Z,96806.91
2023-03-27T09:29:45.542Z,96810.97
2023-03-27T09:32:14.989Z,96813.72
2023-03-27T09:34:43.171Z,96816.97
2023-03-27T09:37:17.389Z,96810.16
2023-03-27T09:39:48.649Z,96809.81
2023-03-27T09:42:36.273Z,96824.50
2023-03-27T09:45:07.015Z,96826.09
2023-03-27T09:47:46.674Z,96825.44
2023-03-27T09:50:46.145Z,96833.59
2023-03-27T09:53:16.216Z,96847.25
2023-03-27T09:56:01.675Z,96840.09
2023-03-27T09:58:43.946Z,96848.84
2023-03-27T10:01:34.404Z,96849.16
2023-03-27T10:04:12.187Z,96851.44
2023-03-27T10:06:45.764Z,96866.41
2023-03-27T10:09:26.797Z,96855.38
2023-03-27T10:12:17.037Z,96863.66
2023-03-27T10:14:50.540Z,96872.09
2023-03-27T10:17:29.629Z,96868.22
2023-03-27T10:20:13.394Z,96871.62
2023-03-27T10:22:43.038Z,96879.16
2023-03-27T10:25:20.430Z,96874.22
2023-03-27T10:27:48.437Z,96872.62
2023-03-27T10:30:28.346Z,96853.75
2023-03-27T10:32:56.066Z,96880.75
2023-03-27T10:35:37.788Z,96891.81
2023-03-27T10:38:14.308Z,96888.41
2023-03-27T10:40:47.669Z,96892.16
2023-03-27T10:43:27.869Z,96896.56
2023-03-27T10:45:59.528Z,96883.69
2023-03-27T10:48:51.694Z,96888.91
2023-03-27T10:51:30.748Z,96902.91
2023-03-27T10:54:34.581Z,96889.75
2023-03-27T10:57:38.224Z,96896.59
2023-03-27T11:00:18.656Z,96896.09
2023-03-27T11:03:00.150Z,96891.37
2023-03-27T11:05:39.589Z,96901.63
2023-03-27T11:08:22.463Z,96906.53
2023-03-27T11:10:51.007Z,96890.87
2023-03-27T11:13:27.905Z,96895.12
2023-03-27T11:16:22.097Z,96906.50
2023-03-27T11:19:10.736Z,96906.50
2023-03-27T11:21:46.027Z,96902.44
2023-03-27T11:24:31.879Z,96920.53
2023-03-27T11:27:05.318Z,96913.16
2023-03-27T11:29:36.983Z,96924.75
2023-03-27T11:32:12.853Z,96921.16
2023-03-27T11:35:02.779Z,96924.25
2023-03-27T11:37:39.908Z,96930.75
2023-03-27T11:40:17.213Z,96941.19
2023-03-27T11:42:45.310Z,96938.09
2023-03-27T11:45:15.621Z,96933.19
2023-03-27T11:48:24.050Z,96939.88
2023-03-27T11:51:00.779Z,96938.41
2023-03-27T11:53:54.937Z,96919.81
2023-03-27T11:56:26.495Z,96934.81
2023-03-27T11:59:06.644Z,96935.94
2023-03-27T12:01:45.918Z,96945.22
2023-03-27T12:04:28.284Z,96951.91
2023-03-27T12:07:26.320Z,96951.06
2023-03-27T12:10:25.371Z,96957.44
2023-03-27T12:13:41.291Z,96961.00
2023-03-27T12:16:29.702Z,96959.37
2023-03-27T12:19:27.637Z,96968.03
2023-03-27T12:21:58.580Z,96963.47
2023-03-27T12:24:34.837Z,96988.72
2023-03-27T12:27:17.063Z,97002.12
2023-03-27T12:29:47.462Z,96985.94
2023-03-27T12:32:36.916Z,96969.81
2023-03-27T12:35:13.514Z,96991.03
2023-03-27T12:37:45.797Z,96999.00
2023-03-27T12:40:34.833Z,96998.69
2023-03-27T12:43:26.732Z,97001.78
2023-03-27T12:46:20.841Z,97022.16
2023-03-27T12:48:55.579Z,97033.06
2023-03-27T12:51:42.292Z,97036.13
2023-03-27T12:54:15.482Z,97042.66
2023-03-27T12:56:43.153Z,97042.94
2023-03-27T12:59:29.344Z,97061.97
2023-03-27T13:02:08.870Z,97066.59
2023-03-27T13:05:16.486Z,97063.34
2023-03-27T13:07:54.251Z,97074.16
2023-03-27T13:10:44.370Z,97087.59
2023-03-27T13:13:32.538Z,97085.69
2023-03-27T13:16:32.052Z,97101.47
2023-03-27T13:19:17.922Z,97106.50
2023-03-27T13:22:04.354Z,97118.50
2023-03-27T13:24:47.420Z,97102.56
2023-03-27T13:27:53.511Z,97119.66
2023-03-27T13:30:47.456Z,97123.72
2023-03-27T13:33:24.069Z,97158.97
2023-03-27T13:35:57.357Z,97126.72
2023-03-27T13:38:46.056Z,97149.47
2023-03-27T13:41:44.600Z,97141.56
2023-03-27T13:44:28.171Z,97170.81
2023-03-27T13:47:34.143Z,97175.34
2023-03-27T13:50:33.883Z,97216.00
2023-03-27T13:53:22.372Z,97211.66
2023-03-27T13:56:01.719Z,97229.16
2023-03-27T13:59:09.548Z,97226.97
2023-03-27T14:01:55.807Z,97233.00
2023-03-27T14:04:39.452Z,97250.19
2023-03-27T14:07:31.806Z,97232.19
2023-03-27T14:10:37.491Z,97316.09
2023-03-27T14:13:18.370Z,97244.16
2023-03-27T14:16:16.550Z,97258.53
2023-03-27T14:19:15.502Z,97269.44
2023-03-27T14:21:56.327Z,97269.53
2023-03-27T14:24:33.763Z,97260.28
2023-03-27T14:27:03.666Z,97296.25
2023-03-27T14:29:32.668Z,97354.56
2023-03-27T14:32:07.434Z,97318.87
2023-03-27T14:34:43.779Z,97329.19
2023-03-27T14:37:32.479Z,97334.19
2023-03-27T14:40:03.466Z,97360.19
2023-03-27T14:42:35.558Z,97362.97
2023-03-27T14:45:23.242Z,97359.16
2023-03-27T14:47:54.890Z,97386.69
2023-03-27T14:50:24.764Z,97409.66
2023-03-27T14:52:55.726Z,97395.06
2023-03-27T14:55:29.806Z,97386.50
2023-03-27T14:58:10.924Z,97383.28
2023-03-27T15:00:40.758Z,97393.87
2023-03-27T15:03:16.824Z,97390.28
2023-03-27T15:06:02.107Z,97411.31
2023-03-27T15:08:36.881Z,97397.47
2023-03-27T15:11:14.533Z,97397.84
2023-03-27T15:13:42.205Z,97414.88
2023-03-27T15:16:16.611Z,97423.09
2023-03-27T15:18:52.661Z,97452.19
2023-03-27T15:21:38.995Z,97450.94
2023-03-27T15:24:19.383Z,97472.44
2023-03-27T15:26:48.578Z,97456.44
2023-03-27T15:29:32.585Z,97461.50
2023-03-27T15:32:01.440Z,97467.38
2023-03-27T15:34:34.617Z,97468.78
2023-03-27T15:37:05.810Z,97510.94
2023-03-27T15:39:34.418Z,97498.38
2023-03-27T15:42:06.661Z,97528.31
2023-03-27T15:44:34.080Z,97488.63
2023-03-27T15:47:01.715Z,97470.87
2023-03-27T15:49:36.175Z,97523.59
2023-03-27T15:52:22.138Z,97553.31
2023-03-27T15:54:56.330Z,97555.16
2023-03-27T15:57:23.800Z,97535.06
2023-03-27T15:59:53.597Z,97556.34
2023-03-27T16:02:21.874Z,97565.38
2023-03-27T16:04:59.059Z,97590.63
2023-03-27T16:07:26.621Z,97581.00
2023-03-27T16:10:06.795Z,97584.09
2023-03-27T16:12:52.356Z,97601.66
2023-03-27T16:15:36.741Z,97582.53
2023-03-27T16:18:19.056Z,97594.63
2023-03-27T16:20:46.610Z,97600.03
2023-03-27T16:23:13.891Z,97616.94
2023-03-27T16:25:41.432Z,97625.88
2023-03-27T16:28:09.947Z,97620.94
2023-03-27T16:30:39.421Z,97615.87
2023-03-27T16:33:17.773Z,97625.28
2023-03-27T16:35:45.761Z,97635.50
2023-03-27T16:38:14.078Z,97665.56
2023-03-27T16:40:43.511Z,97641.28
2023-03-27T16:43:10.866Z,97674.25
2023-03-27T16:45:38.350Z,97661.69
2023-03-27T16:48:05.831Z,97693.59
2023-03-27T16:50:33.394Z,97717.66
2023-03-27T16:53:00.404Z,97725.19
2023-03-27T16:55:27.448Z,97708.88
2023-03-27T16:57:55.684Z,97729.22
2023-03-27T17:00:23.467Z,97754.44
2023-03-27T17:02:50.827Z,97741.22
2023-03-27T17:05:18.598Z,97766.41
2023-03-27T17:07:46.990Z,97795.94
2023-03-27T17:10:14.675Z,97809.59
2023-03-27T17:12:42.086Z,97780.34
2023-03-27T17:15:09.825Z,97796.16
2023-03-27T17:17:36.918Z,97797.81
2023-03-27T17:20:07.587Z,97780.44
2023-03-27T17:22:34.998Z,97808.16
2023-03-27T17:25:03.656Z,97811.50
2023-03-27T17:27:31.503Z,97814.78
2023-03-27T17:29:59.299Z,97790.19
2023-03-27T17:32:27.036Z,97801.59
2023-03-27T17:34:54.967Z,97794.06
2023-03-27T17:37:23.020Z,97798.69
2023-03-27T17:39:50.386Z,97781.47
2023-03-27T17:42:18.116Z,97776.41
2023-03-27T17:44:45.564Z,97813.37
2023-03-27T17:47:13.398Z,97784.88
2023-03-27T17:49:43.083Z,97807.19
2023-03-27T17:52:11.953Z,97811.66
2023-03-27T17:54:39.217Z,97809.88
2023-03-27T17:57:06.852Z,97817.31
2023-03-27T17:59:33.904Z,97827.63
2023-03-27T18:02:01.288Z,97831.03
2023-03-27T18:04:31.803Z,97835.91
2023-03-27T18:06:58.933Z,97825.09
2023-03-27T18:09:26.113Z,97826.59
2023-03-27T18:11:53.507Z,97841.28
2023-03-27T18:14:20.732Z,97831.97
2023-03-27T18:16:47.793Z,97845.31
2023-03-27T18:19:15.434Z,97841.91
2023-03-27T18:21:42.441Z,97860.28
2023-03-27T18:24:09.626Z,97871.75
2023-03-27T18:26:37.124Z,97851.41
2023-03-27T18:29:05.015Z,97858.22
2023-03-27T18:31:32.139Z,97910.25
2023-03-27T18:33:59.491Z,97889.59
2023-03-27T18:36:27.328Z,97894.53
2023-03-27T18:38:54.424Z,97901.44
2023-03-27T18:41:21.761Z,97928.06
2023-03-27T18:43:49.096Z,97932.31
2023-03-27T18:46:19.380Z,97917.12
2023-03-27T18:48:49.151Z,97915.06
2023-03-27T18:51:19.720Z,97941.78
2023-03-27T18:53:47.094Z,97935.19
2023-03-27T18:56:14.131Z,97936.09
2023-03-27T18:58:42.193Z,97942.19
2023-03-27T19:01:10.181Z,97950.22
2023-03-27T19:03:39.028Z,97950.87
2023-03-27T19:06:08.432Z,98000.00
2023-03-27T19:08:38.544Z,97968.84
2023-03-27T19:11:06.403Z,97961.28
2023-03-27T19:13:48.357Z,97939.19
2023-03-27T19:16:16.688Z,97960.13
2023-03-27T19:18:45.335Z,97966.28
2023-03-27T19:21:13.287Z,97958.56
2023-03-27T19:23:41.285Z,97957.53
2023-03-27T19:26:13.697Z,97966.47
2023-03-27T19:28:41.320Z,97958.03
2023-03-27T19:31:11.754Z,97949.06
2023-03-27T19:33:39.053Z,97973.13
2023-03-27T19:36:07.755Z,97978.06
2023-03-27T19:38:37.231Z,97986.63
2023-03-27T19:41:08.154Z,97960.22
2023-03-27T19:43:35.527Z,97979.38
2023-03-27T19:46:14.860Z,97987.97
2023-03-27T19:48:44.312Z,98008.75
2023-03-27T19:51:13.121Z,97993.59
2023-03-27T19:53:45.696Z,98001.41
2023-03-27T19:56:12.752Z,98030.62
2023-03-27T19:58:39.754Z,98009.25
2023-03-27T20:01:07.334Z,98025.66
2023-03-27T20:03:38.415Z,98008.97
2023-03-27T20:06:13.278Z,98017.53
2023-03-27T20:08:42.376Z,98017.63
2023-03-27T20:11:13.475Z,98013.09
2023-03-27T20:13:52.994Z,98027.84
2023-03-27T20:16:25.005Z,98036.59
2023-03-27T20:18:55.477Z,98058.91
2023-03-27T20:21:24.693Z,98045.16
2023-03-27T20:23:55.651Z,98041.66
2023-03-27T20:26:24.269Z,98050.50
2023-03-27T20:28:53.592Z,98066.25
2023-03-27T20:31:21.371Z,98077.44
2023-03-27T20:33:48.831Z,98066.34
2023-03-27T20:36:16.656Z,98071.78
2023-03-27T20:38:46.417Z,98076.03
2023-03-27T20:41:15.921Z,98080.47
2023-03-27T20:43:45.828Z,98070.25
2023-03-27T20:46:14.277Z,98089.13
2023-03-27T20:48:44.916Z,98085.16
2023-03-27T20:51:24.072Z,98091.31
2023-03-27T20:53:55.817Z,98075.31
2023-03-27T20:56:23.822Z,98099.16
2023-03-27T20:58:51.681Z,98098.22
2023-03-27T21:01:19.757Z,98101.00
2023-03-27T21:03:49.769Z,98103.84
2023-03-27T21:06:19.744Z,98116.84
2023-03-27T21:08:47.766Z,98108.72
2023-03-27T21:11:15.353Z,98109.63
2023-03-27T21:13:42.458Z,98110.00
2023-03-27T21:16:09.937Z,98116.19
2023-03-27T21:18:37.060Z,98121.62
2023-03-27T21:21:04.838Z,98118.69
2023-03-27T21:23:32.296Z,98143.78
2023-03-27T21:25:59.583Z,98139.47
2023-03-27T21:28:26.857Z,98143.97
2023-03-27T21:30:54.406Z,98146.19
2023-03-27T21:33:21.551Z,98142.16
2023-03-27T21:35:49.298Z,98150.34
2023-03-27T21:38:17.568Z,98137.62
2023-03-27T21:40:47.641Z,98150.53
2023-03-27T21:43:15.373Z,98143.59
2023-03-27T21:45:42.794Z,98149.13
2023-03-27T21:48:11.113Z,98145.81
2023-03-27T21:50:38.292Z,98137.28
2023-03-27T21:53:06.152Z,98149.63
2023-03-27T21:55:34.424Z,98144.62
2023-03-27T21:58:01.534Z,98149.44
2023-03-27T22:00:28.977Z,98155.69
2023-03-27T22:02:57.195Z,98183.66
2023-03-27T22:05:24.347Z,98176.47
2023-03-27T22:07:51.444Z,98162.22
2023-03-27T22:10:18.957Z,98165.09
2023-03-27T22:12:46.046Z,98173.72
2023-03-27T22:15:13.168Z,98180.31
2023-03-27T22:17:41.084Z,98182.53
2023-03-27T22:20:08.512Z,98189.53
2023-03-27T22:22:36.357Z,98185.22
2023-03-27T22:25:04.792Z,98189.53
2023-03-27T22:27:32.128Z,98183.75
2023-03-27T22:29:59.360Z,98185.47
2023-03-27T22:32:26.800Z,98203.69
2023-03-27T22:34:53.892Z,98194.78
2023-03-27T22:37:21.053Z,98203.50
2023-03-27T22:39:48.400Z,98217.47
2023-03-27T22:42:15.523Z,98211.44
2023-03-27T22:44:42.940Z,98217.41
2023-03-27T22:47:10.724Z,98208.13
2023-03-27T22:49:37.853Z,98212.50
2023-03-27T22:52:05.185Z,98234.97
2023-03-27T22:54:32.695Z,98223.94
2023-03-27T22:57:00.049Z,98224.91
2023-03-27T22:59:27.196Z,98229.44
2023-03-27T23:01:54.723Z,98235.84
2023-03-27T23:04:21.886Z,98229.84
2023-03-27T23:06:49.232Z,98245.16
2023-03-27T23:09:17.949Z,98244.56
2023-03-27T23:11:45.475Z,98251.62
2023-03-27T23:14:13.113Z,98253.34
2023-03-27T23:16:40.596Z,98256.78
2023-03-27T23:19:07.682Z,98263.56
2023-03-27T23:21:34.847Z,98267.00
2023-03-27T23:24:02.376Z,98269.66
2023-03-27T23:26:29.481Z,98272.41
2023-03-27T23:28:56.492Z,98267.44
2023-03-27T23:31:24.359Z,98274.31
2023-03-27T23:33:51.607Z,98276.97
2023-03-27T23:36:21.049Z,98276.88
2023-03-27T23:38:48.473Z,98274.22
2023-03-27T23:41:16.267Z,98267.44
2023-03-27T23:43:43.663Z,98278.47
2023-03-27T23:46:11.380Z,98288.03
2023-03-27T23:48:39.650Z,98294.34
2023-03-27T23:51:07.738Z,98299.75
2023-03-27T23:53:36.212Z,98286.69
2023-03-27T23:56:03.775Z,98289.69
2023-03-27T23:58:33.730Z,98311.44
